Terminal Aerodrome Forecast
Issued by NWS Bismarck, ND

Home | Current Version | Previous Version | Text Only | Print | Product List | Glossary Off
Versions: 1 2 3 4 5 6 7 8 9 10 11 12 13 14 15 16 17 18 19 20 21 22 23 24 25 26 27 28

000
FTUS43 KBIS 242340
TAFBIS
TAF
KBIS 242340Z 2500/2524 10006KT P6SM FEW090 SCT150
     FM250300 06005KT P6SM VCTS SCT080CB BKN150
     FM250800 06006KT P6SM -SHRA VCTS SCT050 BKN080CB
     FM251500 10007KT P6SM -SHRA VCTS BKN035CB=

USA.gov is the U.S. government's official web portal to all federal, state and local government web resources and services.